Etusivu
METAR-TAF:

METAR-TAF

Lentoasemat :

Nîmes, Ranska

Leveyspiiri: 43-45N, Pituuspiiri: 004-25E, korkeus merenpinnasta: 94 m

Tämänhetkinen sää

Tämä raportti tehtiin 24 minuuttia sitten, kello 01.00 UTC
tyyntä
Lämpötila 4°C
Kosteus 100%
Ilmanpaine 1023 hPa
Näkyvyys: 4800 m
utua

METAR: LFTW 200100Z AUTO 00000KT 4800 BR NSC 04/04 Q1023

Aika: 02:24 (01:24 UTC)

Sääennuste

Tämä raportti tehtiin 11 tuntia ja 24 minuuttia sitten, kello 14.00 UTC
Ennuste voimassa 19. päivästä klo 15 UTC - 20. päivään klo 15 UTC
Tuuli 2 kn eri suunnista
Näkyvyys 10 km tai enemmän
Hajonneita pilviä 3000 ft:n korkeudessa
Ajoittain
19. päivästä klo 22 UTC - 20. päivään klo 11 UTC
Näkyvyys: 1200 m
Hajonneita pilviä 1000 ft:n korkeudessa
utua
Todennäköisyys 40% :
Ajoittain
20. päivästä klo 00 UTC - 20. päivään klo 08 UTC
Näkyvyys: 0200 m
sumua

TAF: LFTW 191400Z 1915/2015 VRB02KT 9999 BKN030 TEMPO 1922/2011 1200 BR BKN010 PROB40 TEMPO 2000/2008 0200 FG VV///

Säähavainnot ja -ennusteet yli 4000 lentoasemalta (METAR- ja TAF-raportit).

Käytössä olevat sääasemat on merkitty karttaan keltaisilla ja punaisilla pisteillä.

Aseta hiiri pisteen päälle nähdäksesi sääaseman nimen.

Klikkaa sitten nähdäksesi säähavainnot ja -ennusteet.

Kartan vaihtaminen: klikkaa mustalla rastilla varustettuja vihreitä pisteitä, niin voit zoomata sisään; viivalla varustettua vihreää pistettä, niin voit zoomata ulos tai vihreitä nuolia, niin pääset viereisille kartoille.


METAR-TAF: